Time;durP1;ratioP1;P1;durP2;ratioP2;P2;SDS_P1;SDS_P2;PMS_P1;PMS_P2;Temp;Humidity;BMP_temperature;BMP_pressure;BME280_temperature;BME280_humidity;BME280_pressure;Samples;Min_cycle;Max_cycle;Signal;HPM_P1;HPM_P2
2021/12/30 00:02:08;;;;;;;11.20;2.10;;;11.30;99.90;;;;;;5048140;28;20056;-94
2021/12/30 00:04:35;;;;;;;5.07;2.00;;;11.30;99.90;;;;;;5045440;28;20029;-94
2021/12/30 00:07:02;;;;;;;10.48;1.80;;;11.30;99.90;;;;;;5059028;28;20021;-95
2021/12/30 00:09:28;;;;;;;11.52;2.15;;;11.30;99.90;;;;;;5044307;28;20057;-95
2021/12/30 00:11:54;;;;;;;8.40;2.35;;;11.30;99.90;;;;;;5041924;28;20061;-93
2021/12/30 00:14:20;;;;;;;7.95;2.10;;;11.30;99.90;;;;;;5048611;28;20013;-93
2021/12/30 00:16:46;;;;;;;6.85;2.20;;;11.30;99.90;;;;;;5045199;28;20034;-93
2021/12/30 00:19:13;;;;;;;7.07;2.10;;;11.30;99.90;;;;;;5043678;28;20026;-95
2021/12/30 00:21:39;;;;;;;10.98;2.33;;;11.30;99.90;;;;;;5043392;28;20124;-94
2021/12/30 00:24:06;;;;;;;9.55;2.90;;;11.30;99.90;;;;;;5044805;28;20112;-95
2021/12/30 00:26:32;;;;;;;7.03;1.88;;;11.30;99.90;;;;;;5041991;28;20048;-96
2021/12/30 00:28:58;;;;;;;7.18;2.00;;;11.30;99.90;;;;;;5040690;28;20056;-96
2021/12/30 00:31:23;;;;;;;8.20;2.03;;;11.30;99.90;;;;;;5040075;28;20053;-94
2021/12/30 00:33:49;;;;;;;7.85;2.10;;;11.40;99.90;;;;;;5039290;28;20021;-95
2021/12/30 00:36:15;;;;;;;6.07;1.83;;;11.40;99.90;;;;;;5041630;28;20194;-94
2021/12/30 00:38:44;;;;;;;12.30;2.47;;;11.40;99.90;;;;;;5035509;28;20391;-94
2021/12/30 00:41:10;;;;;;;11.95;2.58;;;11.40;99.90;;;;;;5037188;28;20026;-94
2021/12/30 00:43:37;;;;;;;8.50;1.80;;;11.50;99.90;;;;;;5034042;28;20067;-93
2021/12/30 00:46:05;;;;;;;7.28;1.65;;;11.40;99.90;;;;;;5035800;28;20029;-94
2021/12/30 00:48:31;;;;;;;8.32;2.85;;;11.40;99.90;;;;;;5033285;28;20060;-94
2021/12/30 00:50:57;;;;;;;9.93;2.05;;;11.50;99.90;;;;;;5035157;28;20030;-94
2021/12/30 00:53:23;;;;;;;8.82;1.63;;;11.40;99.90;;;;;;5034032;28;20030;-95
2021/12/30 00:55:48;;;;;;;5.85;1.58;;;11.40;99.90;;;;;;5033260;28;20036;-94
2021/12/30 00:58:14;;;;;;;6.10;1.55;;;11.40;99.90;;;;;;5033100;28;20029;-93
2021/12/30 01:00:42;;;;;;;4.13;1.58;;;11.40;99.90;;;;;;5032535;28;20041;-92
2021/12/30 01:03:08;;;;;;;5.30;1.60;;;11.40;99.90;;;;;;5033126;28;20025;-93
2021/12/30 01:05:35;;;;;;;5.80;1.40;;;11.40;99.90;;;;;;5032600;28;20026;-91
2021/12/30 01:08:02;;;;;;;6.47;2.03;;;11.40;99.90;;;;;;5032528;28;20119;-94
2021/12/30 01:10:29;;;;;;;10.00;1.90;;;11.40;99.90;;;;;;5033631;28;20030;-93
2021/12/30 01:12:56;;;;;;;10.63;1.83;;;11.40;99.90;;;;;;5036691;28;20065;-92
2021/12/30 01:15:34;;;;;;;6.10;1.45;;;11.50;99.90;;;;;;5036983;28;20022;-91
2021/12/30 01:20:54;;;;;;;9.38;1.77;;;11.50;99.90;;;;;;5028785;28;20034;-93
2021/12/30 01:23:20;;;;;;;8.07;1.67;;;11.50;99.90;;;;;;5036374;28;20060;-93
2021/12/30 01:25:46;;;;;;;6.28;1.60;;;11.50;99.90;;;;;;5036466;28;20118;-94
2021/12/30 01:28:12;;;;;;;4.82;1.20;;;11.50;99.90;;;;;;5036059;28;20021;-93
2021/12/30 01:30:37;;;;;;;7.40;1.83;;;11.50;99.90;;;;;;5035995;28;20041;-93
2021/12/30 01:33:03;;;;;;;2.92;1.10;;;11.50;99.90;;;;;;5036807;28;20364;-92
2021/12/30 01:35:30;;;;;;;2.45;1.10;;;11.50;99.90;;;;;;5036778;28;20017;-94
2021/12/30 01:37:59;;;;;;;8.32;1.23;;;11.50;99.90;;;;;;5036393;28;20036;-92
2021/12/30 01:40:26;;;;;;;5.50;1.30;;;11.50;99.90;;;;;;5036315;28;20703;-92
2021/12/30 01:42:52;;;;;;;4.95;1.40;;;11.50;99.90;;;;;;5036218;28;20083;-92
2021/12/30 01:45:18;;;;;;;2.55;1.20;;;11.50;99.90;;;;;;5036244;28;20025;-93
2021/12/30 01:47:50;;;;;;;10.80;2.20;;;11.50;99.90;;;;;;5036284;28;20025;-92
2021/12/30 01:50:17;;;;;;;4.10;1.58;;;11.60;99.90;;;;;;5035891;28;20096;-92
2021/12/30 01:52:43;;;;;;;2.78;1.67;;;11.60;99.90;;;;;;5035858;28;20116;-92
2021/12/30 01:55:11;;;;;;;7.78;1.90;;;11.60;99.90;;;;;;5035916;28;20104;-92
2021/12/30 01:57:37;;;;;;;5.45;1.63;;;11.60;99.90;;;;;;5036062;28;20030;-92
2021/12/30 02:00:09;;;;;;;5.85;1.38;;;11.60;99.90;;;;;;5038953;28;20264;-93
2021/12/30 02:02:35;;;;;;;2.35;0.90;;;11.60;99.90;;;;;;5037263;28;20025;-93
2021/12/30 02:05:00;;;;;;;3.85;1.30;;;11.60;99.90;;;;;;5035794;28;20071;-94
2021/12/30 02:07:26;;;;;;;7.70;1.02;;;11.70;99.90;;;;;;5035949;28;20072;-93
2021/12/30 02:09:59;;;;;;;2.92;0.80;;;11.70;99.90;;;;;;5036496;28;20543;-93
2021/12/30 02:12:25;;;;;;;1.42;0.70;;;11.70;99.90;;;;;;5035878;28;20037;-93
2021/12/30 02:14:51;;;;;;;2.08;0.68;;;11.70;99.90;;;;;;5035841;28;20029;-92
2021/12/30 02:17:17;;;;;;;0.65;0.47;;;11.70;99.90;;;;;;5035263;28;20371;-93
2021/12/30 02:19:43;;;;;;;0.85;0.57;;;11.80;99.90;;;;;;5034739;28;20526;-92
2021/12/30 02:22:08;;;;;;;1.10;0.73;;;11.80;99.90;;;;;;5034966;28;20033;-92
2021/12/30 02:24:35;;;;;;;1.15;0.75;;;11.80;99.90;;;;;;5035150;28;20021;-94
2021/12/30 02:27:00;;;;;;;4.47;0.85;;;11.80;99.90;;;;;;5035048;28;20040;-92
2021/12/30 02:29:26;;;;;;;3.70;0.80;;;11.80;99.90;;;;;;5034600;28;20045;-93
2021/12/30 02:31:52;;;;;;;1.10;0.43;;;11.80;99.90;;;;;;5035046;28;20042;-92
2021/12/30 02:34:19;;;;;;;1.13;0.35;;;11.80;99.90;;;;;;5035061;28;20409;-93
2021/12/30 02:36:47;;;;;;;1.45;0.20;;;11.80;99.90;;;;;;5035511;28;20033;-92
2021/12/30 02:39:14;;;;;;;0.70;0.68;;;11.80;99.90;;;;;;5035207;28;20463;-93
2021/12/30 02:41:40;;;;;;;0.95;0.40;;;11.80;99.90;;;;;;5035197;28;20021;-94
2021/12/30 02:44:08;;;;;;;0.40;0.30;;;11.90;99.90;;;;;;5035234;28;20017;-93
2021/12/30 02:46:35;;;;;;;0.65;0.40;;;11.90;99.90;;;;;;5034802;28;20037;-92
2021/12/30 02:49:01;;;;;;;0.63;0.43;;;11.90;99.90;;;;;;5034566;28;20030;-93
2021/12/30 02:51:28;;;;;;;1.08;0.50;;;11.90;99.90;;;;;;5034310;28;20065;-93
2021/12/30 02:53:54;;;;;;;0.75;0.57;;;11.90;99.90;;;;;;5034470;28;20025;-92
2021/12/30 02:56:21;;;;;;;0.80;0.43;;;11.90;99.90;;;;;;5034253;28;20030;-92
2021/12/30 02:58:47;;;;;;;1.88;0.50;;;11.90;99.90;;;;;;5034715;28;20479;-94
2021/12/30 03:01:20;;;;;;;2.60;0.55;;;11.90;99.90;;;;;;5034370;28;20029;-92
2021/12/30 03:03:46;;;;;;;0.50;0.50;;;11.90;99.90;;;;;;5034177;28;20117;-93
2021/12/30 03:06:14;;;;;;;0.68;0.63;;;11.90;99.90;;;;;;5034990;28;20025;-94
2021/12/30 03:08:41;;;;;;;0.60;0.60;;;12.00;99.90;;;;;;5034766;28;20383;-93
2021/12/30 03:11:08;;;;;;;1.27;0.60;;;12.00;99.90;;;;;;5034944;28;20033;-92
2021/12/30 03:13:35;;;;;;;0.98;0.80;;;12.00;99.90;;;;;;5034995;28;20113;-92
2021/12/30 03:16:05;;;;;;;1.17;0.60;;;12.00;99.90;;;;;;5035120;28;20022;-93
2021/12/30 03:18:32;;;;;;;3.58;0.60;;;12.00;99.90;;;;;;5034944;28;20030;-94
2021/12/30 03:20:59;;;;;;;0.60;0.57;;;12.00;99.90;;;;;;5033847;28;20043;-92
2021/12/30 03:23:24;;;;;;;1.27;0.55;;;12.00;99.90;;;;;;5034037;28;20221;-93
2021/12/30 03:25:50;;;;;;;0.52;0.52;;;12.00;99.90;;;;;;5034343;28;20040;-93
2021/12/30 03:28:16;;;;;;;0.90;0.50;;;12.00;99.90;;;;;;5034353;28;20021;-93
2021/12/30 03:30:42;;;;;;;0.70;0.50;;;12.00;99.90;;;;;;5033527;28;20049;-92
2021/12/30 03:33:08;;;;;;;1.85;0.40;;;12.00;99.90;;;;;;5033534;28;20029;-93
2021/12/30 03:35:34;;;;;;;0.40;0.35;;;12.00;99.90;;;;;;5034514;28;20030;-92
2021/12/30 03:37:59;;;;;;;0.82;0.40;;;12.00;99.90;;;;;;5034210;28;20025;-94
2021/12/30 03:40:25;;;;;;;0.25;0.25;;;12.00;99.90;;;;;;5034119;28;20116;-94
2021/12/30 03:42:51;;;;;;;0.40;0.40;;;12.00;99.90;;;;;;5034590;28;20107;-93
2021/12/30 03:45:17;;;;;;;0.30;0.30;;;12.00;99.90;;;;;;5034681;28;20026;-92
2021/12/30 03:47:47;;;;;;;0.90;0.30;;;12.00;99.90;;;;;;5036480;28;20025;-94
2021/12/30 03:50:20;;;;;;;0.55;0.40;;;11.90;99.90;;;;;;5034047;28;20025;-93
2021/12/30 03:52:51;;;;;;;0.20;0.20;;;11.90;99.90;;;;;;5034471;28;20373;-94
2021/12/30 03:55:19;;;;;;;3.53;0.45;;;11.90;99.90;;;;;;5033735;28;20036;-93
2021/12/30 03:57:46;;;;;;;1.80;0.60;;;11.90;99.90;;;;;;5033736;28;20081;-93
2021/12/30 04:00:13;;;;;;;0.65;0.20;;;11.90;99.90;;;;;;5033742;28;20025;-94
2021/12/30 04:02:39;;;;;;;4.47;0.40;;;11.90;99.90;;;;;;5034090;28;20025;-94
2021/12/30 04:05:06;;;;;;;0.30;0.30;;;11.90;99.90;;;;;;5033247;28;20086;-93
2021/12/30 04:07:31;;;;;;;1.48;0.30;;;11.90;99.90;;;;;;5033178;28;20044;-94
2021/12/30 04:09:57;;;;;;;0.40;0.40;;;12.00;99.90;;;;;;5033130;28;20029;-93
2021/12/30 04:12:23;;;;;;;0.32;0.30;;;11.90;99.90;;;;;;5033234;28;20076;-95
2021/12/30 04:14:48;;;;;;;0.70;0.60;;;11.90;99.90;;;;;;5033098;28;20378;-94
2021/12/30 04:17:14;;;;;;;1.00;0.50;;;12.00;99.90;;;;;;5032983;28;20033;-94
2021/12/30 04:19:40;;;;;;;0.40;0.40;;;12.00;99.90;;;;;;5033598;28;20025;-93
2021/12/30 04:22:06;;;;;;;1.73;0.57;;;12.00;99.90;;;;;;5033157;28;20136;-94
2021/12/30 04:24:32;;;;;;;0.40;0.40;;;12.00;99.90;;;;;;5033378;28;20025;-94
2021/12/30 04:26:58;;;;;;;0.90;0.50;;;12.00;99.90;;;;;;5033453;28;20492;-94
2021/12/30 04:29:24;;;;;;;0.63;0.35;;;12.00;99.90;;;;;;5032630;28;20121;-93
2021/12/30 04:31:50;;;;;;;2.55;0.70;;;12.00;99.90;;;;;;5032872;28;20453;-93
2021/12/30 04:34:15;;;;;;;0.60;0.60;;;12.00;99.90;;;;;;5033226;28;20018;-94
2021/12/30 04:36:41;;;;;;;0.80;0.80;;;12.00;99.90;;;;;;5033120;28;20029;-94
2021/12/30 04:39:08;;;;;;;0.80;0.80;;;12.00;99.90;;;;;;5033156;28;20113;-94
2021/12/30 04:41:34;;;;;;;0.90;0.90;;;12.00;99.90;;;;;;5033070;28;20044;-93
2021/12/30 04:44:00;;;;;;;0.70;0.70;;;12.00;99.90;;;;;;5033380;28;20021;-93
2021/12/30 04:46:27;;;;;;;0.77;0.77;;;12.00;99.90;;;;;;5032910;28;20025;-93
2021/12/30 04:48:53;;;;;;;0.80;0.80;;;12.00;99.90;;;;;;5033504;28;20022;-94
2021/12/30 04:51:19;;;;;;;0.80;0.77;;;12.00;99.90;;;;;;5034233;28;20036;-93
2021/12/30 04:53:45;;;;;;;0.47;0.47;;;12.00;99.90;;;;;;5036711;28;20022;-94
2021/12/30 04:56:11;;;;;;;0.90;0.70;;;12.10;99.90;;;;;;5037044;28;20034;-96
2021/12/30 04:58:37;;;;;;;0.68;0.68;;;12.10;99.90;;;;;;5034832;28;20025;-95
2021/12/30 05:01:03;;;;;;;0.90;0.60;;;12.10;99.90;;;;;;5038168;28;20621;-93
2021/12/30 05:03:28;;;;;;;0.50;0.50;;;12.10;99.90;;;;;;5038645;28;20033;-96
2021/12/30 05:05:55;;;;;;;0.68;0.50;;;12.10;99.90;;;;;;5035749;28;20108;-95
2021/12/30 05:08:24;;;;;;;0.50;0.50;;;12.10;99.90;;;;;;5036683;28;20072;-96
2021/12/30 05:10:51;;;;;;;0.50;0.50;;;12.10;99.90;;;;;;5035948;28;20032;-94
2021/12/30 05:13:19;;;;;;;0.40;0.40;;;12.10;99.90;;;;;;5039657;28;20049;-95
2021/12/30 05:15:47;;;;;;;0.35;0.35;;;12.10;99.90;;;;;;5037676;28;20112;-94
2021/12/30 05:18:14;;;;;;;0.22;0.22;;;12.20;99.90;;;;;;5034647;28;20437;-94
2021/12/30 05:20:42;;;;;;;0.38;0.38;;;12.20;99.90;;;;;;5034577;28;20036;-94
2021/12/30 05:23:10;;;;;;;0.40;0.35;;;12.10;99.90;;;;;;5033842;28;20021;-94
2021/12/30 05:25:36;;;;;;;0.70;0.20;;;12.20;99.90;;;;;;5036363;28;20033;-95
2021/12/30 05:28:02;;;;;;;0.20;0.20;;;12.20;99.90;;;;;;5037210;28;20115;-94
2021/12/30 05:30:28;;;;;;;0.10;0.10;;;12.20;99.90;;;;;;5039040;28;20072;-94
2021/12/30 05:32:56;;;;;;;0.10;0.10;;;12.20;99.90;;;;;;5040141;28;20025;-93
2021/12/30 05:35:22;;;;;;;0.10;0.10;;;12.20;99.90;;;;;;5038322;28;20028;-94
2021/12/30 05:37:49;;;;;;;1.13;0.20;;;12.20;99.90;;;;;;5034020;28;20025;-95
2021/12/30 05:40:19;;;;;;;0.10;0.10;;;12.30;99.90;;;;;;5031984;28;20029;-94
2021/12/30 05:42:45;;;;;;;0.57;0.10;;;12.30;99.90;;;;;;5030837;28;20152;-93
2021/12/30 05:45:14;;;;;;;0.10;0.10;;;12.30;99.90;;;;;;5033361;28;20029;-94
2021/12/30 05:47:41;;;;;;;0.08;0.03;;;12.30;99.90;;;;;;5032067;28;20029;-95
2021/12/30 05:50:09;;;;;;;0.20;0.20;;;12.30;99.90;;;;;;5032225;28;20034;-94
2021/12/30 05:52:36;;;;;;;1.77;0.08;;;12.30;99.90;;;;;;5033364;28;20033;-95
2021/12/30 05:55:03;;;;;;;0.10;0.10;;;12.40;99.90;;;;;;5032306;28;20026;-93
2021/12/30 05:57:29;;;;;;;2.45;0.20;;;12.30;99.90;;;;;;5034062;28;20116;-93
2021/12/30 05:59:56;;;;;;;0.40;0.20;;;12.40;99.90;;;;;;5034677;28;20117;-93
2021/12/30 06:02:22;;;;;;;0.70;0.10;;;12.40;99.90;;;;;;5034847;28;20367;-94
2021/12/30 06:04:47;;;;;;;0.10;0.10;;;12.40;99.90;;;;;;5034860;28;20136;-94
2021/12/30 06:07:13;;;;;;;1.60;0.20;;;12.40;99.90;;;;;;5034933;28;20021;-93
2021/12/30 06:09:39;;;;;;;0.20;0.10;;;12.40;99.90;;;;;;5034726;28;20124;-95
2021/12/30 06:12:05;;;;;;;0.40;0.10;;;12.40;99.90;;;;;;5034355;28;20056;-94
2021/12/30 06:14:31;;;;;;;0.00;0.00;;;12.30;99.90;;;;;;5034594;28;20026;-93
2021/12/30 06:16:56;;;;;;;0.95;0.10;;;12.30;99.90;;;;;;5034565;28;20132;-93
2021/12/30 06:19:22;;;;;;;0.43;0.10;;;12.30;99.90;;;;;;5033789;28;20103;-93
2021/12/30 06:21:48;;;;;;;0.00;0.00;;;12.30;99.90;;;;;;5033790;28;20028;-93
2021/12/30 06:24:13;;;;;;;0.10;0.10;;;12.30;99.90;;;;;;5034071;28;20047;-93
2021/12/30 06:26:39;;;;;;;1.17;0.20;;;12.30;99.90;;;;;;5034056;28;20037;-93
2021/12/30 06:29:05;;;;;;;0.08;0.08;;;12.30;99.90;;;;;;5034034;28;20064;-92
2021/12/30 06:31:31;;;;;;;2.03;0.20;;;12.30;99.90;;;;;;5033949;28;20040;-93
2021/12/30 06:33:56;;;;;;;1.23;0.20;;;12.40;99.90;;;;;;5033888;28;20025;-92
2021/12/30 06:36:22;;;;;;;0.50;0.20;;;12.30;99.90;;;;;;5033613;28;20028;-92
2021/12/30 06:38:49;;;;;;;0.10;0.10;;;12.30;99.90;;;;;;5032087;28;20025;-93
2021/12/30 06:41:15;;;;;;;1.00;0.20;;;12.40;99.90;;;;;;5033703;28;20044;-92
2021/12/30 06:43:41;;;;;;;0.20;0.20;;;12.30;99.90;;;;;;5033573;28;20033;-93
2021/12/30 06:46:09;;;;;;;4.63;0.50;;;12.30;99.90;;;;;;5034203;28;20094;-94
2021/12/30 06:48:35;;;;;;;0.17;0.10;;;12.30;99.90;;;;;;5033955;28;20467;-93
2021/12/30 06:51:03;;;;;;;0.15;0.15;;;12.40;99.90;;;;;;5033733;28;20044;-93
2021/12/30 06:53:30;;;;;;;0.20;0.10;;;12.40;99.90;;;;;;5034031;28;20070;-93
2021/12/30 06:55:56;;;;;;;0.10;0.10;;;12.40;99.90;;;;;;5033787;28;20083;-94
2021/12/30 06:58:22;;;;;;;1.33;0.20;;;12.40;99.90;;;;;;5034057;28;20113;-94
2021/12/30 07:00:51;;;;;;;0.57;0.20;;;12.30;99.90;;;;;;5033412;28;20021;-93
2021/12/30 07:03:17;;;;;;;1.45;0.10;;;12.40;99.90;;;;;;5033766;28;20037;-93
2021/12/30 07:05:43;;;;;;;0.20;0.10;;;12.40;99.90;;;;;;5033728;28;20021;-94
2021/12/30 07:08:09;;;;;;;0.00;0.00;;;12.40;99.90;;;;;;5032516;28;20048;-95
2021/12/30 07:10:34;;;;;;;0.00;0.00;;;12.40;99.90;;;;;;5043542;28;20542;-95
2021/12/30 07:13:00;;;;;;;1.00;0.20;;;12.40;99.90;;;;;;5046087;28;20033;-94
2021/12/30 07:15:30;;;;;;;0.68;0.10;;;12.50;99.90;;;;;;5052508;28;20082;-95
2021/12/30 07:17:56;;;;;;;1.27;0.10;;;12.50;99.90;;;;;;5049906;28;20033;-94
2021/12/30 07:20:23;;;;;;;0.25;0.03;;;12.50;99.90;;;;;;5051167;28;20074;-95
2021/12/30 07:22:49;;;;;;;0.68;0.20;;;12.60;99.90;;;;;;5054126;28;20036;-95
2021/12/30 07:25:18;;;;;;;1.15;0.50;;;12.60;99.90;;;;;;5056616;28;20025;-95
2021/12/30 07:27:50;;;;;;;1.70;0.10;;;12.50;99.90;;;;;;5063652;28;20029;-95
2021/12/30 07:30:19;;;;;;;0.82;0.20;;;12.60;99.90;;;;;;5077638;28;20099;-95
2021/12/30 07:32:45;;;;;;;0.20;0.00;;;12.60;99.90;;;;;;5052947;28;20068;-95
2021/12/30 07:35:10;;;;;;;0.60;0.08;;;12.60;99.90;;;;;;5063398;28;20494;-95
2021/12/30 07:37:36;;;;;;;0.13;0.10;;;12.60;99.90;;;;;;5065080;28;20013;-95
2021/12/30 07:40:03;;;;;;;0.20;0.10;;;12.60;99.90;;;;;;5051035;28;20028;-96
2021/12/30 07:42:29;;;;;;;0.17;0.10;;;12.60;99.90;;;;;;5045425;28;20052;-95
2021/12/30 07:44:56;;;;;;;0.52;0.20;;;12.50;99.90;;;;;;5052717;28;20021;-95
2021/12/30 07:47:22;;;;;;;3.05;0.52;;;12.50;99.90;;;;;;5059194;28;20025;-95
2021/12/30 07:49:48;;;;;;;2.83;0.22;;;12.50;99.90;;;;;;5054462;28;20067;-95
2021/12/30 07:52:15;;;;;;;1.65;0.32;;;12.50;99.90;;;;;;5056353;28;20025;-94
2021/12/30 07:54:43;;;;;;;0.98;0.40;;;12.50;99.90;;;;;;5042896;28;20048;-94
2021/12/30 07:57:10;;;;;;;0.47;0.20;;;12.50;99.90;;;;;;5045852;28;20045;-94
2021/12/30 07:59:38;;;;;;;0.63;0.20;;;12.60;99.90;;;;;;5051222;28;20119;-95
2021/12/30 08:02:04;;;;;;;1.27;0.10;;;12.60;99.90;;;;;;5057460;28;20450;-95
2021/12/30 08:04:30;;;;;;;1.95;0.32;;;12.60;99.90;;;;;;5049669;28;20026;-96
2021/12/30 08:06:58;;;;;;;0.38;0.10;;;12.60;99.90;;;;;;5039373;28;20041;-95
2021/12/30 08:09:24;;;;;;;2.22;0.85;;;12.60;99.90;;;;;;5044691;28;20041;-95
2021/12/30 08:11:50;;;;;;;1.15;0.82;;;12.60;99.90;;;;;;5045022;28;20091;-95
2021/12/30 08:14:17;;;;;;;0.90;0.40;;;12.60;99.90;;;;;;5048880;28;20017;-95
2021/12/30 08:16:43;;;;;;;0.17;0.17;;;12.60;99.90;;;;;;5050554;28;20032;-95
2021/12/30 08:19:12;;;;;;;1.60;0.30;;;12.50;99.90;;;;;;5053260;28;20037;-95
2021/12/30 08:21:42;;;;;;;0.88;0.20;;;12.50;99.90;;;;;;5048024;28;20025;-94
2021/12/30 08:24:09;;;;;;;0.25;0.10;;;12.50;99.90;;;;;;5056650;28;20025;-96
2021/12/30 08:26:36;;;;;;;2.65;0.30;;;12.50;99.90;;;;;;5051382;28;20087;-95
2021/12/30 08:29:03;;;;;;;1.85;0.32;;;12.50;99.90;;;;;;5054209;28;20013;-94
2021/12/30 08:31:33;;;;;;;1.75;0.45;;;12.50;99.90;;;;;;5055472;28;20107;-95
2021/12/30 08:34:00;;;;;;;1.98;0.40;;;12.50;99.90;;;;;;5050536;28;20494;-93
2021/12/30 08:36:26;;;;;;;0.80;0.32;;;12.50;99.90;;;;;;5053371;28;20111;-94
2021/12/30 08:38:53;;;;;;;1.85;0.40;;;12.50;99.90;;;;;;5049371;28;20033;-95
2021/12/30 08:41:19;;;;;;;2.05;0.38;;;12.40;99.90;;;;;;5044334;28;20047;-95
2021/12/30 08:43:45;;;;;;;1.35;0.35;;;12.40;99.90;;;;;;5048824;28;20049;-96
2021/12/30 08:46:11;;;;;;;2.25;0.38;;;12.40;99.90;;;;;;5043734;28;20101;-93
2021/12/30 08:48:38;;;;;;;0.80;0.25;;;12.40;99.90;;;;;;5045108;28;20091;-94
2021/12/30 08:51:04;;;;;;;1.77;0.40;;;12.40;99.90;;;;;;5048047;28;20039;-94
2021/12/30 08:53:30;;;;;;;1.88;0.50;;;12.40;99.90;;;;;;5040379;28;20017;-94
2021/12/30 08:55:56;;;;;;;0.50;0.35;;;12.40;99.90;;;;;;5041104;28;20087;-94
2021/12/30 08:58:22;;;;;;;0.95;0.30;;;12.40;99.90;;;;;;5059843;28;20085;-94
2021/12/30 09:00:48;;;;;;;1.40;0.68;;;12.40;99.90;;;;;;5046075;28;20025;-94
2021/12/30 09:03:16;;;;;;;2.30;0.50;;;12.40;99.90;;;;;;5058385;28;20035;-94
2021/12/30 09:05:43;;;;;;;2.22;0.98;;;12.40;99.90;;;;;;5056046;28;20028;-95
2021/12/30 09:08:09;;;;;;;1.45;0.55;;;12.50;99.90;;;;;;5055454;28;20060;-93
2021/12/30 09:10:40;;;;;;;2.38;0.85;;;12.50;99.90;;;;;;5052028;28;20047;-94
2021/12/30 09:13:07;;;;;;;3.80;0.80;;;12.50;99.90;;;;;;5052061;28;20032;-94
2021/12/30 09:15:34;;;;;;;1.42;0.70;;;12.50;99.90;;;;;;5051684;28;20021;-95
2021/12/30 09:18:01;;;;;;;8.75;3.22;;;12.60;99.90;;;;;;5049941;28;20479;-94
2021/12/30 09:20:28;;;;;;;16.83;5.65;;;12.60;99.90;;;;;;5045008;28;20111;-95
2021/12/30 09:22:55;;;;;;;8.30;3.78;;;12.60;99.90;;;;;;5045803;28;20021;-95
2021/12/30 09:25:23;;;;;;;5.55;2.10;;;12.70;99.90;;;;;;5045601;28;20029;-93
2021/12/30 09:27:53;;;;;;;6.00;2.85;;;12.80;99.90;;;;;;5054254;28;20020;-94
2021/12/30 09:30:22;;;;;;;2.55;1.10;;;12.80;99.90;;;;;;5049345;28;20072;-95
2021/12/30 09:32:49;;;;;;;6.97;2.30;;;12.90;99.90;;;;;;5056663;28;20026;-94
2021/12/30 09:35:16;;;;;;;3.50;1.50;;;13.00;99.90;;;;;;5058438;28;20017;-95
2021/12/30 09:37:43;;;;;;;1.92;1.27;;;13.10;99.90;;;;;;5067458;28;20025;-95
2021/12/30 09:40:13;;;;;;;2.88;1.58;;;13.10;99.90;;;;;;5063620;28;20021;-95
2021/12/30 09:42:45;;;;;;;5.07;1.20;;;13.20;99.90;;;;;;5050547;28;20132;-93
2021/12/30 09:45:12;;;;;;;5.95;1.27;;;13.20;99.90;;;;;;5052562;28;20059;-96
2021/12/30 09:47:52;;;;;;;3.47;0.68;;;13.20;99.90;;;;;;5051769;28;20028;-94
2021/12/30 09:50:21;;;;;;;1.33;0.80;;;13.30;99.90;;;;;;5054727;28;20029;-92
2021/12/30 09:52:47;;;;;;;2.78;0.80;;;13.30;99.90;;;;;;5047010;28;20041;-95
2021/12/30 09:55:14;;;;;;;1.75;0.65;;;13.40;99.90;;;;;;5044830;28;20032;-95
2021/12/30 09:57:41;;;;;;;1.60;0.73;;;13.50;99.90;;;;;;5044413;28;20529;-95
2021/12/30 10:00:09;;;;;;;2.65;0.63;;;13.60;99.90;;;;;;5042932;28;20018;-94
2021/12/30 10:02:35;;;;;;;3.00;0.60;;;13.70;99.90;;;;;;5050308;28;20037;-95
2021/12/30 10:05:11;;;;;;;1.17;0.50;;;13.90;99.90;;;;;;5047815;28;20033;-96
2021/12/30 10:07:39;;;;;;;1.92;0.60;;;14.10;99.90;;;;;;5048021;28;20115;-95
2021/12/30 10:10:32;;;;;;;5.95;0.73;;;14.20;99.90;;;;;;5056131;28;20048;-95
2021/12/30 10:12:59;;;;;;;1.63;0.80;;;14.30;99.90;;;;;;5046144;28;20050;-96
2021/12/30 10:15:28;;;;;;;2.85;0.70;;;14.20;99.90;;;;;;5053855;28;20029;-95
2021/12/30 10:18:01;;;;;;;2.90;1.08;;;14.20;99.90;;;;;;5048834;28;20025;-95
2021/12/30 10:20:29;;;;;;;1.85;0.57;;;14.00;99.90;;;;;;5051262;28;20044;-96
2021/12/30 10:23:21;;;;;;;2.35;0.45;;;14.00;99.90;;;;;;5061080;28;20181;-95
2021/12/30 10:25:58;;;;;;;1.33;0.50;;;13.90;99.90;;;;;;5061025;28;20027;-95
2021/12/30 10:28:24;;;;;;;3.03;0.70;;;13.90;99.90;;;;;;5059991;28;20034;-93
2021/12/30 10:31:18;;;;;;;3.03;0.52;;;14.00;99.90;;;;;;5056972;28;20068;-96
2021/12/30 10:37:20;;;;;;;1.55;0.40;;;14.10;99.90;;;;;;5052710;28;20109;-96
2021/12/30 10:39:46;;;;;;;1.45;0.70;;;14.10;99.90;;;;;;5038011;28;20451;-96
2021/12/30 10:42:21;;;;;;;1.63;0.98;;;14.10;99.90;;;;;;5053592;28;20534;-96
2021/12/30 10:44:48;;;;;;;1.88;0.60;;;14.30;99.90;;;;;;5055794;28;20060;-96
2021/12/30 10:47:15;;;;;;;2.92;0.70;;;14.30;99.90;;;;;;5045310;28;20056;-96
2021/12/30 10:49:41;;;;;;;1.80;0.60;;;14.30;99.90;;;;;;5046808;28;20022;-96
2021/12/30 10:52:07;;;;;;;2.33;0.57;;;14.30;99.90;;;;;;5054251;28;20029;-96
2021/12/30 10:54:39;;;;;;;1.38;0.50;;;14.20;99.90;;;;;;5051395;28;20459;-95
2021/12/30 10:57:10;;;;;;;2.03;0.63;;;14.20;99.90;;;;;;5054239;28;20495;-95
2021/12/30 10:59:47;;;;;;;2.95;0.68;;;14.10;99.90;;;;;;5065169;28;20021;-95
2021/12/30 11:02:18;;;;;;;1.80;0.60;;;14.00;99.90;;;;;;5045429;28;20116;-96
2021/12/30 11:04:50;;;;;;;2.47;0.80;;;14.00;99.90;;;;;;5046338;28;20032;-96
2021/12/30 11:07:19;;;;;;;1.67;0.50;;;14.00;99.90;;;;;;5045960;28;20014;-95
2021/12/30 11:09:50;;;;;;;1.50;0.60;;;14.00;99.90;;;;;;5061695;28;20052;-95
2021/12/30 11:12:22;;;;;;;2.95;0.60;;;14.00;99.90;;;;;;5049219;28;20064;-96
2021/12/30 11:14:48;;;;;;;0.80;0.60;;;14.00;99.90;;;;;;5051556;28;20013;-96
2021/12/30 11:17:18;;;;;;;3.58;0.60;;;14.10;99.90;;;;;;5052905;28;20535;-95
2021/12/30 11:19:47;;;;;;;2.05;0.90;;;14.10;99.90;;;;;;5059620;28;20112;-95
2021/12/30 11:22:25;;;;;;;1.70;0.80;;;14.10;99.90;;;;;;5060902;28;20020;-95
2021/12/30 11:24:53;;;;;;;1.00;0.70;;;14.10;99.90;;;;;;5063607;28;20044;-95
2021/12/30 11:27:20;;;;;;;1.27;0.70;;;14.10;99.90;;;;;;5070902;28;20021;-96
2021/12/30 11:29:49;;;;;;;1.92;0.80;;;14.00;99.90;;;;;;5075700;28;20064;-94
2021/12/30 11:32:22;;;;;;;1.05;0.73;;;14.00;99.90;;;;;;5072948;28;20098;-94
2021/12/30 11:34:49;;;;;;;0.68;0.50;;;13.90;99.90;;;;;;5053072;28;20021;-93
2021/12/30 11:37:17;;;;;;;1.60;0.60;;;13.80;99.90;;;;;;5059267;28;20071;-94
2021/12/30 11:39:55;;;;;;;0.98;0.50;;;13.80;99.90;;;;;;5059179;28;20074;-95
2021/12/30 11:42:29;;;;;;;2.72;0.98;;;13.70;99.90;;;;;;5055936;28;20026;-96
2021/12/30 11:45:01;;;;;;;1.38;0.70;;;13.70;99.90;;;;;;5052770;28;20033;-94
2021/12/30 11:47:35;;;;;;;1.17;0.60;;;13.70;99.90;;;;;;5052217;28;20029;-95
2021/12/30 11:50:09;;;;;;;0.75;0.75;;;13.70;99.90;;;;;;5053292;28;20033;-95
2021/12/30 11:52:45;;;;;;;1.33;0.88;;;13.70;99.90;;;;;;5058208;28;20175;-95
2021/12/30 11:55:39;;;;;;;2.13;1.27;;;13.70;99.90;;;;;;5052323;28;20021;-95
2021/12/30 11:58:27;;;;;;;2.40;1.27;;;13.80;99.90;;;;;;5055010;28;20108;-95
2021/12/30 12:01:12;;;;;;;1.17;0.77;;;13.80;99.90;;;;;;5055055;28;20082;-95
2021/12/30 12:04:12;;;;;;;1.75;1.02;;;13.80;99.90;;;;;;5060935;28;20419;-96
2021/12/30 12:11:55;;;;;;;0.82;0.73;;;13.80;99.90;;;;;;5037496;28;20122;-93
2021/12/30 12:14:22;;;;;;;1.00;0.68;;;13.80;99.90;;;;;;5043901;28;20037;-94
2021/12/30 12:17:01;;;;;;;1.10;0.47;;;13.80;99.90;;;;;;5045375;28;20068;-95
2021/12/30 12:19:49;;;;;;;0.47;0.47;;;13.70;99.90;;;;;;5041688;28;20104;-96
2021/12/30 12:22:21;;;;;;;1.80;0.52;;;13.70;99.90;;;;;;5053129;28;20087;-95
2021/12/30 12:24:48;;;;;;;0.60;0.38;;;13.70;99.90;;;;;;5049175;28;20029;-95
2021/12/30 12:27:19;;;;;;;2.03;0.55;;;13.60;99.90;;;;;;5051360;28;20560;-96
2021/12/30 12:29:48;;;;;;;1.15;0.60;;;13.60;99.90;;;;;;5046832;28;20040;-95
2021/12/30 12:32:26;;;;;;;1.05;0.60;;;13.60;99.90;;;;;;5051153;28;20022;-96
2021/12/30 12:34:53;;;;;;;1.00;0.52;;;13.50;99.90;;;;;;5038771;28;20080;-96
2021/12/30 12:37:29;;;;;;;1.27;0.77;;;13.50;99.90;;;;;;5036061;28;20057;-95
2021/12/30 12:40:02;;;;;;;1.55;0.65;;;13.50;99.90;;;;;;5049537;28;20092;-95
2021/12/30 12:42:55;;;;;;;1.52;0.98;;;13.50;99.90;;;;;;5034648;28;20115;-94
2021/12/30 12:45:25;;;;;;;1.00;0.68;;;13.50;99.90;;;;;;5037865;28;20037;-95
2021/12/30 12:48:23;;;;;;;1.23;0.75;;;13.50;99.90;;;;;;5042459;28;20094;-95
2021/12/30 12:51:00;;;;;;;2.45;1.10;;;13.50;99.90;;;;;;5041862;28;20053;-94
2021/12/30 12:53:32;;;;;;;0.43;0.35;;;13.50;99.90;;;;;;5032527;28;20049;-95
2021/12/30 12:56:00;;;;;;;1.52;0.88;;;13.40;99.90;;;;;;5036967;28;20021;-93
2021/12/30 12:58:30;;;;;;;1.40;1.15;;;13.40;99.90;;;;;;5050414;28;20504;-93
2021/12/30 13:00:56;;;;;;;0.90;0.73;;;13.40;99.90;;;;;;5044569;28;20021;-93
2021/12/30 13:03:23;;;;;;;2.17;1.30;;;13.40;99.90;;;;;;5031794;28;20475;-94